Mesquite, Nevada
Current Conditions -  °F | °C
As of 1:15 AM on Monday 20 Oct 2014 (Local Time) from KSGU Reporting Station
Clear Clear  
Wind Chill: 63°   Ceiling: Unl
Heat Index: 63°   Visibility: 10mi
Dew Point: 34°   Wind: 0mph
Humidity: 34%   Direction: NA
Pressure: 29.97"   Gusts: NA
Location:  36.8°N, 114.11°W
Report Text: KSGU 200815Z AUTO 00000KT 10SM CLR 17/01 A2997 RMK AO1
Loading
Personal Weather Stations






























Interactive Weather Map New forecast layout! Learn more

10-Day Weather Forecast

Advertisements
Track Severe Weather on mobile